sensor_id;sensor_type;location;lat;lon;timestamp;pressure;altitude;pressure_sealevel;temperature;humidity
54554;BME280;40450;55.848;-3.572;2023-05-31T00:02:25;101101.05;;;10.08;96.97
54554;BME280;40450;55.848;-3.572;2023-05-31T00:04:55;101097.89;;;10.15;94.96
54554;BME280;40450;55.848;-3.572;2023-05-31T00:07:25;101098.41;;;10.88;94.64
54554;BME280;40450;55.848;-3.572;2023-05-31T00:09:56;101095.67;;;12.11;90.83
54554;BME280;40450;55.848;-3.572;2023-05-31T00:12:26;101096.78;;;12.54;90.20
54554;BME280;40450;55.848;-3.572;2023-05-31T00:14:56;101102.34;;;12.37;88.64
54554;BME280;40450;55.848;-3.572;2023-05-31T00:17:26;101099.94;;;13.80;84.59
54554;BME280;40450;55.848;-3.572;2023-05-31T00:19:56;101105.54;;;13.36;83.93
54554;BME280;40450;55.848;-3.572;2023-05-31T00:22:27;101107.56;;;12.09;88.29
54554;BME280;40450;55.848;-3.572;2023-05-31T00:24:57;101111.13;;;11.29;89.87
54554;BME280;40450;55.848;-3.572;2023-05-31T00:27:28;101105.92;;;12.56;87.12
54554;BME280;40450;55.848;-3.572;2023-05-31T00:29:58;101112.89;;;11.30;89.48
54554;BME280;40450;55.848;-3.572;2023-05-31T00:32:29;101113.52;;;11.14;90.96
54554;BME280;40450;55.848;-3.572;2023-05-31T00:34:59;101105.85;;;11.48;87.90
54554;BME280;40450;55.848;-3.572;2023-05-31T00:37:29;101111.14;;;9.33;96.78
54554;BME280;40450;55.848;-3.572;2023-05-31T00:39:59;101113.26;;;10.83;92.12
54554;BME280;40450;55.848;-3.572;2023-05-31T00:42:30;101112.54;;;8.94;96.61
54554;BME280;40450;55.848;-3.572;2023-05-31T00:45:01;101109.13;;;9.18;95.54
54554;BME280;40450;55.848;-3.572;2023-05-31T00:47:30;101110.00;;;10.01;94.93
54554;BME280;40450;55.848;-3.572;2023-05-31T00:50:01;101108.82;;;10.25;93.48
54554;BME280;40450;55.848;-3.572;2023-05-31T00:52:32;101107.74;;;10.58;91.65
54554;BME280;40450;55.848;-3.572;2023-05-31T00:55:02;101109.45;;;11.04;92.47
54554;BME280;40450;55.848;-3.572;2023-05-31T00:57:33;101111.59;;;8.79;97.03
54554;BME280;40450;55.848;-3.572;2023-05-31T01:00:04;101112.06;;;8.85;97.79
54554;BME280;40450;55.848;-3.572;2023-05-31T01:02:33;101110.64;;;9.88;96.37
54554;BME280;40450;55.848;-3.572;2023-05-31T01:05:05;101111.58;;;9.79;95.39
54554;BME280;40450;55.848;-3.572;2023-05-31T01:07:34;101109.47;;;9.08;95.88
54554;BME280;40450;55.848;-3.572;2023-05-31T01:10:06;101107.49;;;9.06;96.73
54554;BME280;40450;55.848;-3.572;2023-05-31T01:12:44;101109.76;;;8.56;98.05
54554;BME280;40450;55.848;-3.572;2023-05-31T01:15:11;101104.68;;;9.80;94.40
54554;BME280;40450;55.848;-3.572;2023-05-31T01:17:40;101102.96;;;9.75;96.25
54554;BME280;40450;55.848;-3.572;2023-05-31T01:20:08;101102.17;;;9.42;95.42
54554;BME280;40450;55.848;-3.572;2023-05-31T01:22:47;101107.53;;;8.10;98.61
54554;BME280;40450;55.848;-3.572;2023-05-31T01:25:20;101108.08;;;8.64;97.65
54554;BME280;40450;55.848;-3.572;2023-05-31T01:27:37;101097.48;;;11.76;93.22
54554;BME280;40450;55.848;-3.572;2023-05-31T01:30:08;101105.48;;;8.79;96.92
54554;BME280;40450;55.848;-3.572;2023-05-31T01:32:38;101104.75;;;9.62;94.37
54554;BME280;40450;55.848;-3.572;2023-05-31T01:35:08;101106.32;;;8.16;98.28
54554;BME280;40450;55.848;-3.572;2023-05-31T01:37:38;101100.58;;;8.44;99.05
54554;BME280;40450;55.848;-3.572;2023-05-31T01:40:09;101094.36;;;11.19;93.05
54554;BME280;40450;55.848;-3.572;2023-05-31T01:42:40;101095.09;;;10.15;93.54
54554;BME280;40450;55.848;-3.572;2023-05-31T01:45:10;101092.43;;;9.69;94.92
54554;BME280;40450;55.848;-3.572;2023-05-31T01:47:40;101096.02;;;9.15;96.58
54554;BME280;40450;55.848;-3.572;2023-05-31T01:50:12;101098.40;;;9.37;96.31
54554;BME280;40450;55.848;-3.572;2023-05-31T01:52:40;101105.08;;;8.12;98.73
54554;BME280;40450;55.848;-3.572;2023-05-31T01:57:43;101106.44;;;9.23;96.13
54554;BME280;40450;55.848;-3.572;2023-05-31T02:00:12;101103.64;;;10.10;94.61
54554;BME280;40450;55.848;-3.572;2023-05-31T02:02:42;101105.35;;;8.34;98.47
54554;BME280;40450;55.848;-3.572;2023-05-31T02:05:17;101101.58;;;9.08;96.09
54554;BME280;40450;55.848;-3.572;2023-05-31T02:07:47;101103.53;;;8.75;96.39
54554;BME280;40450;55.848;-3.572;2023-05-31T02:10:18;101099.88;;;9.52;95.51
54554;BME280;40450;55.848;-3.572;2023-05-31T02:12:43;101094.25;;;11.89;91.55
54554;BME280;40450;55.848;-3.572;2023-05-31T02:15:14;101098.39;;;11.92;91.80
54554;BME280;40450;55.848;-3.572;2023-05-31T02:17:46;101108.86;;;10.03;92.22
54554;BME280;40450;55.848;-3.572;2023-05-31T02:20:15;101112.61;;;9.80;94.03
54554;BME280;40450;55.848;-3.572;2023-05-31T02:22:46;101109.70;;;9.40;93.51
54554;BME280;40450;55.848;-3.572;2023-05-31T02:25:16;101104.90;;;11.89;90.01
54554;BME280;40450;55.848;-3.572;2023-05-31T02:27:46;101110.44;;;10.65;91.07
54554;BME280;40450;55.848;-3.572;2023-05-31T02:30:17;101115.32;;;9.97;92.07
54554;BME280;40450;55.848;-3.572;2023-05-31T02:32:47;101113.91;;;12.45;88.84
54554;BME280;40450;55.848;-3.572;2023-05-31T02:35:17;101108.23;;;13.79;84.22
54554;BME280;40450;55.848;-3.572;2023-05-31T02:37:47;101118.26;;;9.64;92.57
54554;BME280;40450;55.848;-3.572;2023-05-31T02:40:18;101117.87;;;10.74;89.34
54554;BME280;40450;55.848;-3.572;2023-05-31T02:42:48;101112.92;;;9.17;93.83
54554;BME280;40450;55.848;-3.572;2023-05-31T02:45:18;101109.72;;;9.36;93.55
54554;BME280;40450;55.848;-3.572;2023-05-31T02:47:48;101113.00;;;9.69;94.01
54554;BME280;40450;55.848;-3.572;2023-05-31T02:50:19;101111.25;;;10.50;90.12
54554;BME280;40450;55.848;-3.572;2023-05-31T02:52:49;101112.59;;;10.90;90.01
54554;BME280;40450;55.848;-3.572;2023-05-31T02:55:19;101108.04;;;12.97;86.09
54554;BME280;40450;55.848;-3.572;2023-05-31T02:57:49;101105.43;;;13.14;85.05
54554;BME280;40450;55.848;-3.572;2023-05-31T03:00:21;101111.99;;;11.22;88.97
54554;BME280;40450;55.848;-3.572;2023-05-31T03:02:51;101115.70;;;9.09;95.24
54554;BME280;40450;55.848;-3.572;2023-05-31T03:05:21;101111.65;;;8.73;95.95
54554;BME280;40450;55.848;-3.572;2023-05-31T03:07:50;101103.92;;;10.71;91.91
54554;BME280;40450;55.848;-3.572;2023-05-31T03:10:21;101093.02;;;12.18;87.52
54554;BME280;40450;55.848;-3.572;2023-05-31T03:12:51;101099.37;;;11.20;87.76
54554;BME280;40450;55.848;-3.572;2023-05-31T03:15:21;101094.80;;;11.05;89.48
54554;BME280;40450;55.848;-3.572;2023-05-31T03:17:52;101099.21;;;10.15;91.84
54554;BME280;40450;55.848;-3.572;2023-05-31T03:20:30;101092.76;;;12.54;88.19
54554;BME280;40450;55.848;-3.572;2023-05-31T03:22:53;101091.22;;;13.76;83.67
54554;BME280;40450;55.848;-3.572;2023-05-31T03:25:25;101093.91;;;13.15;81.56
54554;BME280;40450;55.848;-3.572;2023-05-31T03:27:54;101096.21;;;12.03;84.68
54554;BME280;40450;55.848;-3.572;2023-05-31T03:30:24;101097.79;;;12.51;84.96
54554;BME280;40450;55.848;-3.572;2023-05-31T03:32:55;101101.84;;;11.93;85.82
54554;BME280;40450;55.848;-3.572;2023-05-31T03:35:25;101103.80;;;11.57;88.34
54554;BME280;40450;55.848;-3.572;2023-05-31T03:37:56;101109.29;;;8.96;94.62
54554;BME280;40450;55.848;-3.572;2023-05-31T03:40:26;101108.85;;;8.95;95.81
54554;BME280;40450;55.848;-3.572;2023-05-31T03:42:56;101106.87;;;9.60;94.03
54554;BME280;40450;55.848;-3.572;2023-05-31T03:45:27;101102.85;;;12.09;88.60
54554;BME280;40450;55.848;-3.572;2023-05-31T03:47:57;101104.88;;;10.61;90.49
54554;BME280;40450;55.848;-3.572;2023-05-31T03:50:27;101102.84;;;10.28;91.61
54554;BME280;40450;55.848;-3.572;2023-05-31T03:52:58;101106.02;;;10.31;91.78
54554;BME280;40450;55.848;-3.572;2023-05-31T03:55:28;101102.42;;;13.13;87.37
54554;BME280;40450;55.848;-3.572;2023-05-31T03:57:58;101112.46;;;10.01;91.00
54554;BME280;40450;55.848;-3.572;2023-05-31T04:00:29;101116.80;;;8.93;94.24
54554;BME280;40450;55.848;-3.572;2023-05-31T04:02:59;101117.80;;;7.05;99.09
54554;BME280;40450;55.848;-3.572;2023-05-31T04:05:30;101111.25;;;7.84;98.21
54554;BME280;40450;55.848;-3.572;2023-05-31T04:08:01;101105.77;;;7.50;98.25
54554;BME280;40450;55.848;-3.572;2023-05-31T04:10:31;101104.77;;;10.26;92.37
54554;BME280;40450;55.848;-3.572;2023-05-31T04:13:01;101103.50;;;10.51;91.90
54554;BME280;40450;55.848;-3.572;2023-05-31T04:15:31;101107.18;;;8.89;94.66
54554;BME280;40450;55.848;-3.572;2023-05-31T04:18:02;101110.26;;;8.79;95.93
54554;BME280;40450;55.848;-3.572;2023-05-31T04:20:32;101110.52;;;10.09;93.53
54554;BME280;40450;55.848;-3.572;2023-05-31T04:23:03;101107.33;;;9.32;94.14
54554;BME280;40450;55.848;-3.572;2023-05-31T04:25:33;101118.86;;;8.64;95.86
54554;BME280;40450;55.848;-3.572;2023-05-31T04:28:05;101115.07;;;11.10;92.89
54554;BME280;40450;55.848;-3.572;2023-05-31T04:30:34;101116.27;;;9.12;95.17
54554;BME280;40450;55.848;-3.572;2023-05-31T04:33:05;101108.50;;;12.48;87.79
54554;BME280;40450;55.848;-3.572;2023-05-31T04:35:35;101106.06;;;13.52;86.13
54554;BME280;40450;55.848;-3.572;2023-05-31T04:38:05;101104.98;;;14.17;80.26
54554;BME280;40450;55.848;-3.572;2023-05-31T04:40:36;101108.83;;;12.95;84.50
54554;BME280;40450;55.848;-3.572;2023-05-31T04:43:06;101107.93;;;11.94;87.13
54554;BME280;40450;55.848;-3.572;2023-05-31T04:45:36;101107.85;;;12.35;84.45
54554;BME280;40450;55.848;-3.572;2023-05-31T04:48:06;101112.94;;;11.55;87.35
54554;BME280;40450;55.848;-3.572;2023-05-31T04:50:37;101117.06;;;9.52;92.44
54554;BME280;40450;55.848;-3.572;2023-05-31T04:53:07;101114.87;;;12.76;85.17
54554;BME280;40450;55.848;-3.572;2023-05-31T04:55:37;101115.81;;;12.63;85.23
54554;BME280;40450;55.848;-3.572;2023-05-31T04:58:08;101120.27;;;10.40;89.43
54554;BME280;40450;55.848;-3.572;2023-05-31T05:00:38;101126.98;;;7.14;97.97
54554;BME280;40450;55.848;-3.572;2023-05-31T05:03:14;101125.22;;;8.64;95.57
54554;BME280;40450;55.848;-3.572;2023-05-31T05:05:39;101121.55;;;10.38;90.99
54554;BME280;40450;55.848;-3.572;2023-05-31T05:08:10;101117.03;;;11.69;88.58
54554;BME280;40450;55.848;-3.572;2023-05-31T05:10:40;101121.41;;;11.55;87.13
54554;BME280;40450;55.848;-3.572;2023-05-31T05:13:11;101119.15;;;13.07;84.07
54554;BME280;40450;55.848;-3.572;2023-05-31T05:15:41;101114.44;;;13.65;81.03
54554;BME280;40450;55.848;-3.572;2023-05-31T05:18:11;101115.89;;;12.40;83.04
54554;BME280;40450;55.848;-3.572;2023-05-31T05:20:42;101123.10;;;10.58;88.01
54554;BME280;40450;55.848;-3.572;2023-05-31T05:23:12;101123.58;;;11.04;88.34
54554;BME280;40450;55.848;-3.572;2023-05-31T05:25:44;101117.71;;;11.88;85.04
54554;BME280;40450;55.848;-3.572;2023-05-31T05:28:13;101115.09;;;13.27;82.71
54554;BME280;40450;55.848;-3.572;2023-05-31T05:30:44;101115.42;;;13.83;78.90
54554;BME280;40450;55.848;-3.572;2023-05-31T05:33:14;101117.68;;;13.08;81.93
54554;BME280;40450;55.848;-3.572;2023-05-31T05:35:45;101121.49;;;11.26;85.52
54554;BME280;40450;55.848;-3.572;2023-05-31T05:38:15;101117.28;;;11.84;85.36
54554;BME280;40450;55.848;-3.572;2023-05-31T05:40:45;101119.06;;;12.77;83.02
54554;BME280;40450;55.848;-3.572;2023-05-31T05:43:16;101116.30;;;13.09;81.56
54554;BME280;40450;55.848;-3.572;2023-05-31T05:45:46;101116.44;;;12.30;83.39
54554;BME280;40450;55.848;-3.572;2023-05-31T05:48:17;101113.33;;;14.01;79.83
54554;BME280;40450;55.848;-3.572;2023-05-31T05:50:49;101110.62;;;14.58;77.92
54554;BME280;40450;55.848;-3.572;2023-05-31T05:53:17;101112.34;;;12.89;79.41
54554;BME280;40450;55.848;-3.572;2023-05-31T05:55:51;101106.27;;;13.55;79.87
54554;BME280;40450;55.848;-3.572;2023-05-31T05:58:17;101105.56;;;13.82;77.97
54554;BME280;40450;55.848;-3.572;2023-05-31T06:00:48;101110.79;;;9.99;89.50
54554;BME280;40450;55.848;-3.572;2023-05-31T06:03:18;101108.12;;;9.38;92.71
54554;BME280;40450;55.848;-3.572;2023-05-31T06:05:48;101107.08;;;8.85;93.79
54554;BME280;40450;55.848;-3.572;2023-05-31T06:08:18;101103.29;;;9.37;94.30
54554;BME280;40450;55.848;-3.572;2023-05-31T06:10:49;101102.56;;;12.26;88.72
54554;BME280;40450;55.848;-3.572;2023-05-31T06:13:19;101100.23;;;13.66;82.67
54554;BME280;40450;55.848;-3.572;2023-05-31T06:15:49;101099.62;;;13.52;84.48
54554;BME280;40450;55.848;-3.572;2023-05-31T06:18:19;101107.06;;;10.77;88.28
54554;BME280;40450;55.848;-3.572;2023-05-31T06:20:50;101097.33;;;13.99;82.08
54554;BME280;40450;55.848;-3.572;2023-05-31T06:23:20;101099.64;;;14.78;78.53
54554;BME280;40450;55.848;-3.572;2023-05-31T06:25:50;101100.38;;;14.58;78.12
54554;BME280;40450;55.848;-3.572;2023-05-31T06:28:21;101102.63;;;12.67;82.02
54554;BME280;40450;55.848;-3.572;2023-05-31T06:30:51;101106.17;;;11.55;85.74
54554;BME280;40450;55.848;-3.572;2023-05-31T06:33:22;101112.13;;;10.80;88.07
54554;BME280;40450;55.848;-3.572;2023-05-31T06:35:52;101111.59;;;9.89;91.26
54554;BME280;40450;55.848;-3.572;2023-05-31T06:38:22;101110.75;;;11.16;89.48
54554;BME280;40450;55.848;-3.572;2023-05-31T06:40:53;101112.61;;;10.51;90.55
54554;BME280;40450;55.848;-3.572;2023-05-31T06:43:23;101111.99;;;10.04;92.42
54554;BME280;40450;55.848;-3.572;2023-05-31T06:45:53;101111.12;;;10.63;91.24
54554;BME280;40450;55.848;-3.572;2023-05-31T06:48:23;101107.34;;;10.45;90.72
54554;BME280;40450;55.848;-3.572;2023-05-31T06:50:54;101102.75;;;9.59;93.20
54554;BME280;40450;55.848;-3.572;2023-05-31T06:53:25;101100.57;;;8.28;96.57
54554;BME280;40450;55.848;-3.572;2023-05-31T06:55:55;101093.45;;;10.23;91.96
54554;BME280;40450;55.848;-3.572;2023-05-31T06:58:29;101091.97;;;10.85;90.40
54554;BME280;40450;55.848;-3.572;2023-05-31T07:00:56;101085.83;;;12.24;85.79
54554;BME280;40450;55.848;-3.572;2023-05-31T07:03:31;101087.71;;;11.97;87.97
54554;BME280;40450;55.848;-3.572;2023-05-31T07:06:01;101094.88;;;9.95;92.31
54554;BME280;40450;55.848;-3.572;2023-05-31T07:08:31;101088.23;;;12.61;84.50
54554;BME280;40450;55.848;-3.572;2023-05-31T07:11:02;101092.14;;;10.58;91.37
54554;BME280;40450;55.848;-3.572;2023-05-31T07:13:32;101087.91;;;12.04;88.97
54554;BME280;40450;55.848;-3.572;2023-05-31T07:16:02;101084.99;;;12.94;83.56
54554;BME280;40450;55.848;-3.572;2023-05-31T07:18:33;101083.18;;;14.56;82.90
54554;BME280;40450;55.848;-3.572;2023-05-31T07:21:03;101074.01;;;13.98;80.00
54554;BME280;40450;55.848;-3.572;2023-05-31T07:23:33;101068.24;;;15.57;77.90
54554;BME280;40450;55.848;-3.572;2023-05-31T07:26:00;101066.78;;;16.46;76.05
54554;BME280;40450;55.848;-3.572;2023-05-31T07:28:34;101073.94;;;14.79;76.89
54554;BME280;40450;55.848;-3.572;2023-05-31T07:31:04;101072.19;;;13.92;78.59
54554;BME280;40450;55.848;-3.572;2023-05-31T07:33:29;101062.51;;;15.53;77.93
54554;BME280;40450;55.848;-3.572;2023-05-31T07:36:05;101076.91;;;11.85;85.93
54554;BME280;40450;55.848;-3.572;2023-05-31T07:38:36;101077.66;;;13.21;81.77
54554;BME280;40450;55.848;-3.572;2023-05-31T07:41:01;101074.64;;;13.91;80.24
54554;BME280;40450;55.848;-3.572;2023-05-31T07:43:31;101076.46;;;12.36;84.08
54554;BME280;40450;55.848;-3.572;2023-05-31T07:46:02;101069.95;;;14.06;81.53
54554;BME280;40450;55.848;-3.572;2023-05-31T07:48:33;101070.08;;;14.37;78.95
54554;BME280;40450;55.848;-3.572;2023-05-31T07:51:03;101066.53;;;12.86;83.26
54554;BME280;40450;55.848;-3.572;2023-05-31T07:53:33;101057.89;;;13.47;82.18
54554;BME280;40450;55.848;-3.572;2023-05-31T07:56:04;101054.66;;;15.26;76.29
54554;BME280;40450;55.848;-3.572;2023-05-31T07:58:34;101050.66;;;16.18;76.43
54554;BME280;40450;55.848;-3.572;2023-05-31T08:01:04;101053.87;;;15.10;74.92
54554;BME280;40450;55.848;-3.572;2023-05-31T08:03:34;101059.53;;;11.76;85.63
54554;BME280;40450;55.848;-3.572;2023-05-31T08:06:05;101063.56;;;10.44;90.37
54554;BME280;40450;55.848;-3.572;2023-05-31T08:08:35;101055.65;;;11.48;89.05
54554;BME280;40450;55.848;-3.572;2023-05-31T08:11:05;101052.72;;;12.18;86.92
54554;BME280;40450;55.848;-3.572;2023-05-31T08:13:36;101053.75;;;12.40;85.99
54554;BME280;40450;55.848;-3.572;2023-05-31T08:16:06;101055.16;;;11.31;89.35
54554;BME280;40450;55.848;-3.572;2023-05-31T08:18:36;101058.28;;;11.11;90.83
54554;BME280;40450;55.848;-3.572;2023-05-31T08:21:07;101053.42;;;11.19;90.70
54554;BME280;40450;55.848;-3.572;2023-05-31T08:23:37;101053.81;;;10.91;90.70
54554;BME280;40450;55.848;-3.572;2023-05-31T08:26:08;101060.58;;;10.20;94.19
54554;BME280;40450;55.848;-3.572;2023-05-31T08:28:38;101055.38;;;12.55;89.78
54554;BME280;40450;55.848;-3.572;2023-05-31T08:31:08;101052.03;;;14.68;81.20
54554;BME280;40450;55.848;-3.572;2023-05-31T08:36:09;101047.33;;;12.12;87.70
54554;BME280;40450;55.848;-3.572;2023-05-31T08:38:39;101051.08;;;12.04;89.52
54554;BME280;40450;55.848;-3.572;2023-05-31T08:41:10;101050.69;;;11.49;89.80
54554;BME280;40450;55.848;-3.572;2023-05-31T08:43:40;101043.95;;;14.61;83.04
54554;BME280;40450;55.848;-3.572;2023-05-31T08:46:11;101043.73;;;13.22;84.05
54554;BME280;40450;55.848;-3.572;2023-05-31T08:48:45;101043.99;;;13.09;83.94
54554;BME280;40450;55.848;-3.572;2023-05-31T08:51:12;101053.25;;;10.94;91.74
54554;BME280;40450;55.848;-3.572;2023-05-31T08:53:43;101047.32;;;12.28;89.31
54554;BME280;40450;55.848;-3.572;2023-05-31T08:56:13;101046.98;;;11.37;89.63
54554;BME280;40450;55.848;-3.572;2023-05-31T08:58:43;101047.15;;;11.74;89.49
54554;BME280;40450;55.848;-3.572;2023-05-31T09:01:13;101046.67;;;12.15;88.35
54554;BME280;40450;55.848;-3.572;2023-05-31T09:03:43;101047.23;;;10.96;91.66
54554;BME280;40450;55.848;-3.572;2023-05-31T09:06:13;101041.60;;;11.78;90.79
54554;BME280;40450;55.848;-3.572;2023-05-31T09:08:44;101038.78;;;13.05;86.01
54554;BME280;40450;55.848;-3.572;2023-05-31T09:11:14;101037.76;;;13.51;84.31
54554;BME280;40450;55.848;-3.572;2023-05-31T09:13:44;101038.16;;;14.39;82.98
54554;BME280;40450;55.848;-3.572;2023-05-31T09:16:16;101038.22;;;12.33;85.97
54554;BME280;40450;55.848;-3.572;2023-05-31T09:18:59;101039.09;;;11.11;90.59
54554;BME280;40450;55.848;-3.572;2023-05-31T09:21:21;101034.38;;;12.30;87.69
54554;BME280;40450;55.848;-3.572;2023-05-31T09:23:54;101034.32;;;11.47;90.24
54554;BME280;40450;55.848;-3.572;2023-05-31T09:26:16;101034.78;;;11.84;89.60
54554;BME280;40450;55.848;-3.572;2023-05-31T09:28:48;101035.22;;;14.50;82.16
54554;BME280;40450;55.848;-3.572;2023-05-31T09:31:17;101028.42;;;15.81;77.40
54554;BME280;40450;55.848;-3.572;2023-05-31T09:33:49;101027.72;;;15.82;77.24
54554;BME280;40450;55.848;-3.572;2023-05-31T09:36:23;101028.52;;;15.39;80.93
54554;BME280;40450;55.848;-3.572;2023-05-31T09:38:48;101028.32;;;15.70;77.67
54554;BME280;40450;55.848;-3.572;2023-05-31T09:41:20;101025.51;;;16.05;75.56
54554;BME280;40450;55.848;-3.572;2023-05-31T09:43:54;101033.14;;;14.08;80.03
54554;BME280;40450;55.848;-3.572;2023-05-31T09:46:25;101030.98;;;13.32;82.95
54554;BME280;40450;55.848;-3.572;2023-05-31T09:48:59;101029.50;;;14.48;81.54
54554;BME280;40450;55.848;-3.572;2023-05-31T09:51:20;101023.84;;;14.84;78.66
54554;BME280;40450;55.848;-3.572;2023-05-31T09:53:51;101018.37;;;16.06;76.80
54554;BME280;40450;55.848;-3.572;2023-05-31T09:56:27;101023.81;;;13.36;82.99
54554;BME280;40450;55.848;-3.572;2023-05-31T09:58:52;101027.77;;;13.84;83.21
54554;BME280;40450;55.848;-3.572;2023-05-31T10:01:20;101025.64;;;14.63;79.07
54554;BME280;40450;55.848;-3.572;2023-05-31T10:03:51;101022.79;;;13.88;81.75
54554;BME280;40450;55.848;-3.572;2023-05-31T10:06:22;101027.82;;;11.21;91.08
54554;BME280;40450;55.848;-3.572;2023-05-31T10:08:52;101019.04;;;14.18;84.28
54554;BME280;40450;55.848;-3.572;2023-05-31T10:11:25;101016.12;;;14.54;82.30
54554;BME280;40450;55.848;-3.572;2023-05-31T10:13:56;101014.84;;;14.11;81.67
54554;BME280;40450;55.848;-3.572;2023-05-31T10:16:22;101011.35;;;14.90;80.03
54554;BME280;40450;55.848;-3.572;2023-05-31T10:18:56;101003.18;;;16.26;76.16
54554;BME280;40450;55.848;-3.572;2023-05-31T10:21:24;101008.79;;;14.54;80.78
54554;BME280;40450;55.848;-3.572;2023-05-31T10:23:56;101011.51;;;12.23;88.67
54554;BME280;40450;55.848;-3.572;2023-05-31T10:28:56;101002.74;;;13.45;84.04
54554;BME280;40450;55.848;-3.572;2023-05-31T10:31:31;101003.49;;;12.19;89.36
54554;BME280;40450;55.848;-3.572;2023-05-31T10:34:07;101001.16;;;11.41;92.29
54554;BME280;40450;55.848;-3.572;2023-05-31T10:36:24;100998.30;;;11.54;90.69
54554;BME280;40450;55.848;-3.572;2023-05-31T10:38:58;100997.43;;;12.13;89.51
54554;BME280;40450;55.848;-3.572;2023-05-31T10:41:29;100994.43;;;14.19;85.19
54554;BME280;40450;55.848;-3.572;2023-05-31T10:44:00;100996.90;;;12.43;88.83
54554;BME280;40450;55.848;-3.572;2023-05-31T10:46:26;100992.50;;;13.59;85.54
54554;BME280;40450;55.848;-3.572;2023-05-31T10:48:58;100999.72;;;12.52;88.52
54554;BME280;40450;55.848;-3.572;2023-05-31T10:53:57;101002.03;;;11.60;91.69
54554;BME280;40450;55.848;-3.572;2023-05-31T10:56:27;101004.00;;;11.83;91.82
54554;BME280;40450;55.848;-3.572;2023-05-31T10:58:58;101000.86;;;12.81;89.58
54554;BME280;40450;55.848;-3.572;2023-05-31T11:01:29;100998.17;;;12.61;89.04
54554;BME280;40450;55.848;-3.572;2023-05-31T11:03:58;100997.39;;;12.11;90.71
54554;BME280;40450;55.848;-3.572;2023-05-31T11:06:30;100996.47;;;12.84;88.15
54554;BME280;40450;55.848;-3.572;2023-05-31T11:09:00;100993.85;;;12.54;88.88
54554;BME280;40450;55.848;-3.572;2023-05-31T11:14:02;100987.91;;;14.68;86.69
54554;BME280;40450;55.848;-3.572;2023-05-31T11:19:03;100989.31;;;14.07;85.32
54554;BME280;40450;55.848;-3.572;2023-05-31T11:24:01;100990.48;;;13.74;84.96
54554;BME280;40450;55.848;-3.572;2023-05-31T11:26:31;100997.01;;;11.81;91.10
54554;BME280;40450;55.848;-3.572;2023-05-31T11:29:01;100995.96;;;12.40;90.98
54554;BME280;40450;55.848;-3.572;2023-05-31T11:36:32;100989.52;;;12.74;88.96
54554;BME280;40450;55.848;-3.572;2023-05-31T11:39:02;100986.90;;;14.09;84.75
54554;BME280;40450;55.848;-3.572;2023-05-31T11:41:33;100990.33;;;11.33;92.54
54554;BME280;40450;55.848;-3.572;2023-05-31T11:44:03;100986.95;;;10.83;94.80
54554;BME280;40450;55.848;-3.572;2023-05-31T11:46:34;100990.89;;;10.49;95.76
54554;BME280;40450;55.848;-3.572;2023-05-31T11:49:04;100987.98;;;12.27;91.06
54554;BME280;40450;55.848;-3.572;2023-05-31T11:51:34;100984.70;;;12.17;92.33
54554;BME280;40450;55.848;-3.572;2023-05-31T11:54:04;100980.31;;;11.74;93.14
54554;BME280;40450;55.848;-3.572;2023-05-31T11:56:34;100975.89;;;13.48;87.89
54554;BME280;40450;55.848;-3.572;2023-05-31T11:59:05;100979.31;;;12.93;88.93
54554;BME280;40450;55.848;-3.572;2023-05-31T12:01:36;100975.75;;;12.96;88.92
54554;BME280;40450;55.848;-3.572;2023-05-31T12:04:06;100973.49;;;12.98;88.38
54554;BME280;40450;55.848;-3.572;2023-05-31T12:06:37;100969.61;;;13.01;88.65
54554;BME280;40450;55.848;-3.572;2023-05-31T12:09:08;100974.77;;;13.61;86.88
54554;BME280;40450;55.848;-3.572;2023-05-31T12:11:37;100978.90;;;13.05;89.23
54554;BME280;40450;55.848;-3.572;2023-05-31T12:14:08;100984.17;;;13.74;87.09
54554;BME280;40450;55.848;-3.572;2023-05-31T12:16:38;100981.36;;;13.95;85.44
54554;BME280;40450;55.848;-3.572;2023-05-31T12:19:11;100980.94;;;13.28;87.85
54554;BME280;40450;55.848;-3.572;2023-05-31T12:21:40;100984.83;;;11.92;91.84
54554;BME280;40450;55.848;-3.572;2023-05-31T12:24:12;100981.49;;;13.88;88.39
54554;BME280;40450;55.848;-3.572;2023-05-31T12:26:40;100981.91;;;14.14;85.45
54554;BME280;40450;55.848;-3.572;2023-05-31T12:29:11;100973.28;;;13.08;87.23
54554;BME280;40450;55.848;-3.572;2023-05-31T12:31:41;100979.99;;;11.98;91.70
54554;BME280;40450;55.848;-3.572;2023-05-31T12:34:12;100971.14;;;12.90;89.37
54554;BME280;40450;55.848;-3.572;2023-05-31T12:36:43;100967.43;;;12.87;88.75
54554;BME280;40450;55.848;-3.572;2023-05-31T12:39:12;100965.33;;;12.92;89.02
54554;BME280;40450;55.848;-3.572;2023-05-31T12:41:43;100964.45;;;12.29;90.32
54554;BME280;40450;55.848;-3.572;2023-05-31T12:44:12;100961.36;;;13.69;86.73
54554;BME280;40450;55.848;-3.572;2023-05-31T12:46:43;100961.20;;;13.31;86.44
54554;BME280;40450;55.848;-3.572;2023-05-31T12:49:18;100955.63;;;13.12;88.67
54554;BME280;40450;55.848;-3.572;2023-05-31T12:51:44;100957.05;;;12.31;89.85
54554;BME280;40450;55.848;-3.572;2023-05-31T12:54:20;100952.70;;;13.45;86.99
54554;BME280;40450;55.848;-3.572;2023-05-31T12:56:45;100953.95;;;12.53;88.87
54554;BME280;40450;55.848;-3.572;2023-05-31T12:59:16;100953.78;;;13.29;87.18
54554;BME280;40450;55.848;-3.572;2023-05-31T13:01:45;100960.28;;;12.01;89.95
54554;BME280;40450;55.848;-3.572;2023-05-31T13:04:17;100954.83;;;12.48;89.18
54554;BME280;40450;55.848;-3.572;2023-05-31T13:06:47;100952.70;;;12.22;89.94
54554;BME280;40450;55.848;-3.572;2023-05-31T13:09:18;100948.77;;;13.83;85.01
54554;BME280;40450;55.848;-3.572;2023-05-31T13:11:48;100948.62;;;14.02;84.35
54554;BME280;40450;55.848;-3.572;2023-05-31T13:14:21;100947.48;;;12.86;87.32
54554;BME280;40450;55.848;-3.572;2023-05-31T13:16:48;100943.90;;;13.66;86.02
54554;BME280;40450;55.848;-3.572;2023-05-31T13:19:18;100944.97;;;12.31;89.24
54554;BME280;40450;55.848;-3.572;2023-05-31T13:21:49;100948.47;;;12.66;89.40